Time;durP1;ratioP1;P1;durP2;ratioP2;P2;SDS_P1;SDS_P2;PMS_P1;PMS_P2;Temp;Humidity;BMP_temperature;BMP_pressure;BME280_temperature;BME280_humidity;BME280_pressure;Samples;Min_cycle;Max_cycle;Signal;HPM_P1;HPM_P2
2022/11/05 00:18:36;;;;;;;0.83;0.83;;;10.80;99.10;;;;;;6034214;29;20502;-65
2022/11/05 00:25:18;;;;;;;1.00;0.90;;;10.70;99.10;;;;;;6130584;29;20479;-65
2022/11/05 00:28:23;;;;;;;2.73;1.00;;;10.60;98.70;;;;;;6130590;29;20820;-65
2022/11/05 00:31:26;;;;;;;0.90;0.53;;;10.60;99.10;;;;;;6149908;28;20471;-66
2022/11/05 00:34:29;;;;;;;1.20;1.10;;;10.60;97.90;;;;;;6143198;28;20479;-65
2022/11/05 00:37:32;;;;;;;2.90;0.73;;;10.70;97.40;;;;;;6137834;29;20514;-67
2022/11/05 00:40:36;;;;;;;1.47;0.80;;;10.70;97.30;;;;;;6143077;29;20476;-66
2022/11/05 00:50:19;;;;;;;0.90;0.90;;;10.80;97.00;;;;;;6145221;28;20472;-67
2022/11/05 00:53:22;;;;;;;0.90;0.90;;;10.80;96.90;;;;;;6137884;28;20479;-67
2022/11/05 00:56:25;;;;;;;0.70;0.60;;;10.80;96.80;;;;;;6138424;28;20948;-66
2022/11/05 00:59:30;;;;;;;1.60;1.50;;;10.80;96.70;;;;;;6137603;29;20476;-67
2022/11/05 01:02:33;;;;;;;1.03;0.93;;;10.80;96.80;;;;;;6136321;29;20483;-66
2022/11/05 01:05:41;;;;;;;0.87;0.73;;;10.80;96.60;;;;;;6141981;29;20778;-66
2022/11/05 01:08:46;;;;;;;1.63;1.50;;;10.70;96.60;;;;;;6139569;29;20801;-67
2022/11/05 01:11:50;;;;;;;1.43;0.80;;;10.70;96.60;;;;;;6137106;29;20497;-66
2022/11/05 01:14:54;;;;;;;1.53;1.20;;;10.80;96.70;;;;;;6138245;28;20975;-66
2022/11/05 01:17:57;;;;;;;1.63;1.03;;;10.90;96.50;;;;;;6139482;29;20492;-67
2022/11/05 01:21:09;;;;;;;0.97;0.97;;;10.90;96.20;;;;;;6140820;28;20484;-66
2022/11/05 01:24:12;;;;;;;1.00;0.90;;;10.90;96.20;;;;;;6142597;28;20490;-66
2022/11/05 01:27:15;;;;;;;1.10;0.80;;;10.90;96.10;;;;;;6148080;28;20841;-66
2022/11/05 01:30:20;;;;;;;0.73;0.73;;;10.90;95.90;;;;;;6138119;28;20570;-67
2022/11/05 01:33:24;;;;;;;0.50;0.40;;;10.80;96.10;;;;;;6136703;28;20480;-66
2022/11/05 01:36:27;;;;;;;0.70;0.57;;;10.90;95.80;;;;;;6131656;28;20473;-66
2022/11/05 01:39:30;;;;;;;1.13;0.70;;;10.90;95.40;;;;;;6141789;29;20962;-65
2022/11/05 01:42:33;;;;;;;0.70;0.60;;;10.90;95.50;;;;;;6141379;28;20467;-66
2022/11/05 01:45:38;;;;;;;1.53;0.70;;;11.00;95.40;;;;;;6138661;28;20435;-67
2022/11/05 01:48:41;;;;;;;0.40;0.40;;;11.00;95.20;;;;;;6141905;28;20459;-67
2022/11/05 01:51:45;;;;;;;1.23;0.57;;;11.00;95.10;;;;;;6135544;29;20930;-65
2022/11/05 01:54:48;;;;;;;0.60;0.60;;;11.10;95.00;;;;;;6137157;29;20554;-66
2022/11/05 01:57:53;;;;;;;0.53;0.40;;;11.10;94.70;;;;;;6144051;29;20467;-66
2022/11/05 02:00:58;;;;;;;0.80;0.70;;;11.10;94.40;;;;;;6137310;29;20551;-66
2022/11/05 02:04:05;;;;;;;0.50;0.40;;;11.10;94.70;;;;;;6139331;28;20472;-65
2022/11/05 02:07:10;;;;;;;0.53;0.53;;;11.10;94.50;;;;;;6137731;29;21083;-66
2022/11/05 02:10:16;;;;;;;0.47;0.40;;;11.10;94.50;;;;;;6133017;29;21095;-66
2022/11/05 02:13:20;;;;;;;0.60;0.50;;;11.10;94.80;;;;;;6134132;29;20479;-67
2022/11/05 02:16:37;;;;;;;0.60;0.60;;;11.10;94.20;;;;;;6128549;29;20479;-67
2022/11/05 02:20:09;;;;;;;0.73;0.60;;;11.10;94.20;;;;;;6128368;29;20484;-67
2022/11/05 02:23:49;;;;;;;0.60;0.60;;;11.20;94.10;;;;;;6116295;29;21031;-65
2022/11/05 02:27:06;;;;;;;1.13;0.77;;;11.20;94.10;;;;;;6128452;29;20482;-66
2022/11/05 02:30:34;;;;;;;0.80;0.50;;;11.30;94.00;;;;;;6128480;29;20480;-66
2022/11/05 02:33:44;;;;;;;0.73;0.70;;;11.30;93.90;;;;;;6128062;28;20467;-66
2022/11/05 02:36:54;;;;;;;1.17;0.63;;;11.30;94.00;;;;;;6128192;29;20943;-66
2022/11/05 02:40:11;;;;;;;0.63;0.63;;;11.20;94.90;;;;;;6128298;29;20986;-66
2022/11/05 02:43:24;;;;;;;0.57;0.57;;;11.10;94.70;;;;;;6128231;29;20476;-66
2022/11/05 02:46:38;;;;;;;1.37;0.57;;;11.10;94.60;;;;;;6127866;28;20999;-66
2022/11/05 02:49:48;;;;;;;1.73;0.60;;;11.00;94.90;;;;;;6128743;29;20472;-66
2022/11/05 02:52:59;;;;;;;0.50;0.50;;;11.00;94.40;;;;;;6127753;29;20475;-66
2022/11/05 02:56:07;;;;;;;0.60;0.60;;;11.00;94.40;;;;;;6128468;29;20853;-67
2022/11/05 02:59:10;;;;;;;0.50;0.50;;;11.00;94.40;;;;;;6128329;29;20528;-66
2022/11/05 03:02:15;;;;;;;0.50;0.50;;;11.00;94.50;;;;;;6127952;29;20475;-65
2022/11/05 03:05:20;;;;;;;0.97;0.80;;;11.00;94.70;;;;;;6129846;29;20490;-66
2022/11/05 03:08:36;;;;;;;0.80;0.70;;;11.10;94.90;;;;;;6132649;29;20976;-66
2022/11/05 03:11:48;;;;;;;1.47;0.60;;;11.10;95.10;;;;;;6132814;29;20476;-66
2022/11/05 03:14:59;;;;;;;0.60;0.60;;;11.10;95.70;;;;;;6132902;29;20479;-66
2022/11/05 03:18:11;;;;;;;1.10;1.00;;;11.00;96.10;;;;;;6132828;29;20479;-66
2022/11/05 03:21:20;;;;;;;1.37;0.70;;;11.00;96.60;;;;;;6132427;28;20475;-65
2022/11/05 03:24:27;;;;;;;1.00;0.80;;;10.90;96.70;;;;;;6132610;29;20484;-67
2022/11/05 03:27:33;;;;;;;0.80;0.80;;;10.90;97.10;;;;;;6132785;29;20455;-67
2022/11/05 03:30:39;;;;;;;1.43;0.63;;;10.90;97.30;;;;;;6132591;29;20715;-66
2022/11/05 03:33:45;;;;;;;1.10;1.00;;;10.90;97.10;;;;;;6131838;29;20479;-66
2022/11/05 03:36:52;;;;;;;1.10;1.00;;;10.80;97.00;;;;;;6132077;28;20464;-66
2022/11/05 03:40:00;;;;;;;1.17;0.70;;;10.70;96.90;;;;;;6132138;29;20472;-66
2022/11/05 03:43:07;;;;;;;1.57;1.30;;;10.80;96.60;;;;;;6132244;28;20479;-66
2022/11/05 03:46:16;;;;;;;1.47;0.70;;;10.80;96.70;;;;;;6131865;29;20971;-66
2022/11/05 03:49:25;;;;;;;1.33;1.23;;;10.80;96.90;;;;;;6132463;29;20475;-65
2022/11/05 03:52:33;;;;;;;1.50;1.40;;;10.80;97.00;;;;;;6131674;29;20483;-66
2022/11/05 03:55:43;;;;;;;0.87;0.70;;;10.80;97.20;;;;;;6131978;29;20491;-65
2022/11/05 03:58:47;;;;;;;1.00;0.80;;;10.80;97.20;;;;;;6131459;29;20868;-65
2022/11/05 04:01:56;;;;;;;0.77;0.70;;;10.80;97.30;;;;;;6131623;28;20487;-64
2022/11/05 04:05:00;;;;;;;0.50;0.50;;;10.70;97.00;;;;;;6142275;28;20485;-64
2022/11/05 04:14:45;;;;;;;0.60;0.60;;;10.70;95.90;;;;;;6131755;29;20475;-65
2022/11/05 04:17:47;;;;;;;1.03;0.90;;;10.80;95.70;;;;;;6130304;29;20539;-66
2022/11/05 04:24:13;;;;;;;0.60;0.60;;;10.90;95.30;;;;;;6131035;29;20547;-66
2022/11/05 04:27:16;;;;;;;0.60;0.57;;;10.90;95.40;;;;;;6131106;28;20783;-66
2022/11/05 04:30:20;;;;;;;1.33;0.50;;;11.00;95.20;;;;;;6130908;29;20960;-66
2022/11/05 04:33:23;;;;;;;1.13;0.50;;;10.90;95.20;;;;;;6130708;29;20502;-65
2022/11/05 04:36:28;;;;;;;0.90;0.70;;;10.90;95.30;;;;;;6130669;29;20467;-65
2022/11/05 04:39:31;;;;;;;1.13;0.80;;;10.90;95.40;;;;;;6130757;29;20492;-65
2022/11/05 04:42:35;;;;;;;0.60;0.60;;;11.00;95.40;;;;;;6130680;28;20479;-64
2022/11/05 04:45:38;;;;;;;0.83;0.70;;;10.90;95.10;;;;;;6130803;29;20447;-65
2022/11/05 04:48:41;;;;;;;0.60;0.60;;;10.90;95.00;;;;;;6130633;29;20452;-65
2022/11/05 04:51:45;;;;;;;0.60;0.60;;;11.10;95.00;;;;;;6130186;29;20963;-64
2022/11/05 04:54:48;;;;;;;1.60;0.60;;;11.00;94.90;;;;;;6130355;29;20531;-64
2022/11/05 04:57:53;;;;;;;0.60;0.60;;;11.10;94.80;;;;;;6130138;29;20471;-65
2022/11/05 05:00:56;;;;;;;1.10;0.73;;;11.10;94.70;;;;;;6130887;28;20468;-65
2022/11/05 05:03:59;;;;;;;1.43;0.70;;;11.10;94.80;;;;;;6129940;29;20515;-64
2022/11/05 05:07:04;;;;;;;0.60;0.60;;;11.10;94.50;;;;;;6130198;29;20500;-66
2022/11/05 05:10:08;;;;;;;0.83;0.63;;;11.10;94.60;;;;;;6130201;29;20503;-65
2022/11/05 05:13:12;;;;;;;1.10;0.77;;;11.00;94.60;;;;;;6130189;29;20498;-65
2022/11/05 05:16:19;;;;;;;0.50;0.50;;;11.10;94.80;;;;;;6129791;29;20630;-66
2022/11/05 05:19:24;;;;;;;0.60;0.60;;;11.20;94.60;;;;;;6125189;29;20487;-66
2022/11/05 05:22:28;;;;;;;0.60;0.60;;;11.20;94.60;;;;;;6129868;28;20554;-66
2022/11/05 05:25:31;;;;;;;1.47;0.70;;;11.10;94.50;;;;;;6129797;29;20573;-65
2022/11/05 05:28:34;;;;;;;0.60;0.60;;;11.20;94.40;;;;;;6129455;29;20476;-65
2022/11/05 05:31:37;;;;;;;0.80;0.80;;;11.20;94.30;;;;;;6129445;29;20490;-65
2022/11/05 05:34:41;;;;;;;1.83;0.53;;;11.20;94.60;;;;;;6129161;28;20960;-65
2022/11/05 05:37:45;;;;;;;0.60;0.50;;;11.20;94.60;;;;;;6129466;29;20472;-65
2022/11/05 05:40:49;;;;;;;2.10;0.70;;;11.20;94.30;;;;;;6129184;29;20480;-65
2022/11/05 05:43:52;;;;;;;0.50;0.50;;;11.20;94.00;;;;;;6129379;29;20488;-65
2022/11/05 05:46:56;;;;;;;0.60;0.60;;;11.10;94.00;;;;;;6129249;29;20960;-65
2022/11/05 05:49:59;;;;;;;1.00;0.90;;;11.20;94.30;;;;;;6129487;29;20487;-65
2022/11/05 05:53:03;;;;;;;0.50;0.50;;;11.10;94.30;;;;;;6145596;28;20485;-65
2022/11/05 05:56:07;;;;;;;1.27;0.70;;;11.10;94.40;;;;;;6152779;29;20804;-66
2022/11/05 05:59:10;;;;;;;1.07;0.97;;;11.10;94.50;;;;;;6152864;29;20479;-65
2022/11/05 06:02:13;;;;;;;0.70;0.70;;;11.10;94.60;;;;;;6152847;28;20489;-65
2022/11/05 06:05:16;;;;;;;0.77;0.77;;;11.10;94.70;;;;;;6152750;29;20489;-66
2022/11/05 06:08:21;;;;;;;1.37;0.70;;;11.10;95.00;;;;;;6152606;29;20487;-66
2022/11/05 06:11:25;;;;;;;0.70;0.60;;;11.10;94.50;;;;;;6152588;29;20863;-66
2022/11/05 06:14:28;;;;;;;0.63;0.63;;;11.10;94.50;;;;;;6152542;28;20483;-66
2022/11/05 06:17:33;;;;;;;1.57;1.47;;;11.20;94.60;;;;;;6152313;29;20489;-66
2022/11/05 06:20:36;;;;;;;1.10;0.63;;;11.20;94.60;;;;;;6151868;29;20483;-66
2022/11/05 06:23:42;;;;;;;0.73;0.73;;;11.10;94.30;;;;;;6151901;28;20604;-65
2022/11/05 06:26:45;;;;;;;0.80;0.80;;;11.20;94.30;;;;;;6152175;29;20475;-66
2022/11/05 06:29:48;;;;;;;1.70;1.10;;;11.30;94.30;;;;;;6152537;29;20856;-65
2022/11/05 06:32:51;;;;;;;1.10;0.80;;;11.30;94.50;;;;;;6152245;28;20502;-64
2022/11/05 06:35:57;;;;;;;0.83;0.83;;;11.40;94.10;;;;;;6152162;29;20522;-65
2022/11/05 06:39:02;;;;;;;1.10;1.07;;;11.40;94.10;;;;;;6151944;28;20483;-65
2022/11/05 06:42:05;;;;;;;1.10;0.93;;;11.50;93.80;;;;;;6152047;28;20474;-65
2022/11/05 06:45:24;;;;;;;4.10;1.70;;;11.60;94.20;;;;;;6152252;29;20819;-65
2022/11/05 06:48:27;;;;;;;5.77;3.47;;;11.60;94.30;;;;;;6152150;29;20458;-65
2022/11/05 06:51:30;;;;;;;2.17;1.97;;;11.70;94.50;;;;;;6152057;29;20443;-65
2022/11/05 06:54:35;;;;;;;1.40;1.30;;;11.80;94.40;;;;;;6151966;28;20471;-66
2022/11/05 06:57:38;;;;;;;1.47;1.37;;;11.90;94.40;;;;;;6152020;29;20883;-66
2022/11/05 07:00:41;;;;;;;1.30;1.10;;;12.00;94.10;;;;;;6152318;29;20482;-66
2022/11/05 07:03:47;;;;;;;1.20;1.10;;;12.10;93.90;;;;;;6152138;28;20482;-66
2022/11/05 07:06:50;;;;;;;1.63;1.20;;;12.20;93.70;;;;;;6151770;29;20470;-66
2022/11/05 07:09:55;;;;;;;2.27;1.33;;;12.30;93.60;;;;;;6152275;29;20485;-65
2022/11/05 07:12:58;;;;;;;1.47;1.37;;;12.40;93.30;;;;;;6151717;28;20478;-65
2022/11/05 07:16:10;;;;;;;1.00;0.90;;;12.50;93.40;;;;;;6151896;29;20482;-66
2022/11/05 07:19:13;;;;;;;2.50;1.00;;;12.60;93.20;;;;;;6153053;29;20491;-66
2022/11/05 07:22:16;;;;;;;1.60;1.03;;;12.80;93.10;;;;;;6150837;28;20858;-66
2022/11/05 07:25:21;;;;;;;2.60;1.40;;;12.80;92.80;;;;;;6151495;28;20475;-66
2022/11/05 07:28:24;;;;;;;1.10;1.00;;;13.00;92.50;;;;;;6151899;28;20534;-66
2022/11/05 07:31:27;;;;;;;1.27;1.03;;;13.10;92.40;;;;;;6152105;28;20485;-66
2022/11/05 07:34:31;;;;;;;1.73;1.60;;;13.20;92.00;;;;;;6151478;28;20985;-65
2022/11/05 07:37:41;;;;;;;1.20;1.10;;;13.40;92.10;;;;;;6151953;28;20534;-66
2022/11/05 07:40:46;;;;;;;3.57;1.90;;;13.50;91.60;;;;;;6152191;28;20565;-66
2022/11/05 07:43:49;;;;;;;4.27;1.27;;;13.70;91.10;;;;;;6151804;28;20486;-65
2022/11/05 07:46:52;;;;;;;1.37;1.03;;;13.80;90.80;;;;;;6151210;28;21034;-65
2022/11/05 07:49:55;;;;;;;1.27;1.13;;;13.90;90.40;;;;;;6151400;28;20489;-66
2022/11/05 07:53:03;;;;;;;1.37;1.27;;;14.10;90.30;;;;;;6153732;28;20483;-66
2022/11/05 07:56:07;;;;;;;1.80;1.27;;;14.10;89.80;;;;;;6156024;28;20474;-65
2022/11/05 07:59:11;;;;;;;1.20;1.10;;;14.20;89.40;;;;;;6155839;28;20495;-65
2022/11/05 08:02:14;;;;;;;3.83;1.10;;;14.20;90.20;;;;;;6155488;28;20489;-65
2022/11/05 08:05:17;;;;;;;2.03;1.67;;;14.20;89.40;;;;;;6155431;28;20518;-65
2022/11/05 08:08:20;;;;;;;1.93;0.97;;;14.30;89.70;;;;;;6155442;28;20486;-66
2022/11/05 08:11:25;;;;;;;1.27;1.17;;;14.20;89.40;;;;;;6144224;28;20966;-65
2022/11/05 08:14:28;;;;;;;7.50;4.57;;;14.00;87.30;;;;;;6133843;29;20872;-65
2022/11/05 08:17:31;;;;;;;6.63;4.30;;;14.00;87.50;;;;;;6139762;28;20539;-65
2022/11/05 08:20:35;;;;;;;2.73;2.00;;;14.00;88.20;;;;;;6146016;28;20480;-65
2022/11/05 08:23:38;;;;;;;5.33;4.47;;;13.90;88.90;;;;;;6146150;28;20964;-65
2022/11/05 08:26:43;;;;;;;1.20;1.10;;;13.90;88.10;;;;;;6154686;28;20502;-65
2022/11/05 08:29:46;;;;;;;1.40;0.93;;;13.80;88.80;;;;;;6154730;28;20982;-64
2022/11/05 08:32:49;;;;;;;1.03;0.80;;;13.90;88.00;;;;;;6154466;28;20524;-65
2022/11/05 08:35:53;;;;;;;1.80;1.70;;;13.80;87.60;;;;;;6154504;28;20482;-65
2022/11/05 08:38:56;;;;;;;2.17;1.80;;;13.90;87.30;;;;;;6147307;28;20812;-65
2022/11/05 08:42:00;;;;;;;1.20;1.10;;;13.90;87.00;;;;;;6142823;28;20625;-65
2022/11/05 08:45:04;;;;;;;0.70;0.70;;;13.90;86.20;;;;;;6140728;29;20483;-65
2022/11/05 08:48:10;;;;;;;1.43;1.10;;;13.90;85.70;;;;;;6144250;28;20557;-65
2022/11/05 08:51:13;;;;;;;2.00;1.13;;;13.90;86.20;;;;;;6116686;29;20471;-64
2022/11/05 08:54:16;;;;;;;2.10;0.80;;;13.80;84.60;;;;;;6143109;28;20490;-65
2022/11/05 08:57:21;;;;;;;0.83;0.73;;;13.90;85.30;;;;;;6106058;29;20498;-65
2022/11/05 09:00:24;;;;;;;1.77;0.90;;;13.90;85.10;;;;;;6105909;29;20488;-66
2022/11/05 09:03:27;;;;;;;0.90;0.90;;;13.90;84.30;;;;;;6105327;29;20604;-66
2022/11/05 09:06:30;;;;;;;3.40;1.00;;;13.90;83.90;;;;;;6105425;29;20580;-66
2022/11/05 09:09:33;;;;;;;1.27;0.77;;;14.00;84.90;;;;;;6105256;29;20463;-65
2022/11/05 09:12:38;;;;;;;1.33;1.00;;;14.10;82.70;;;;;;6105924;29;20469;-65
2022/11/05 09:15:41;;;;;;;1.37;1.10;;;14.10;82.90;;;;;;6106750;29;20440;-66
2022/11/05 09:18:45;;;;;;;0.50;0.47;;;14.20;83.10;;;;;;6106022;29;20917;-66
2022/11/05 09:21:48;;;;;;;1.17;0.70;;;14.20;82.60;;;;;;6106333;29;22826;-65
2022/11/05 09:24:51;;;;;;;0.80;0.70;;;14.30;81.80;;;;;;6106266;29;20930;-65
2022/11/05 09:28:08;;;;;;;1.37;0.90;;;14.30;81.90;;;;;;6106523;29;20949;-65
2022/11/05 09:31:18;;;;;;;0.90;0.70;;;14.30;81.30;;;;;;6106505;29;20487;-63
2022/11/05 09:34:21;;;;;;;1.50;1.00;;;14.10;81.40;;;;;;6105837;29;20587;-63
2022/11/05 09:37:24;;;;;;;1.33;0.67;;;14.30;82.80;;;;;;6106069;29;20499;-64
2022/11/05 09:40:29;;;;;;;1.00;0.50;;;14.40;82.60;;;;;;6106384;29;20485;-62
2022/11/05 09:43:40;;;;;;;3.07;0.80;;;14.40;81.20;;;;;;6106191;29;20496;-62
2022/11/05 09:46:47;;;;;;;0.77;0.70;;;14.50;81.20;;;;;;6106515;29;20477;-62
2022/11/05 09:49:54;;;;;;;0.60;0.57;;;14.30;80.60;;;;;;6108495;29;20515;-64
2022/11/05 09:52:57;;;;;;;0.80;0.80;;;14.20;81.10;;;;;;6125376;28;20476;-64
2022/11/05 09:56:01;;;;;;;2.00;0.60;;;14.20;81.30;;;;;;6140037;28;20975;-64
2022/11/05 09:59:14;;;;;;;0.80;0.60;;;14.30;81.70;;;;;;6129339;29;20480;-64
2022/11/05 10:02:21;;;;;;;0.63;0.63;;;14.20;81.30;;;;;;6129457;29;20480;-66
2022/11/05 10:05:26;;;;;;;1.23;0.70;;;14.20;82.00;;;;;;6128868;29;20550;-66
2022/11/05 10:08:34;;;;;;;1.00;0.83;;;14.20;82.30;;;;;;6129482;29;20547;-66
2022/11/05 10:11:42;;;;;;;0.80;0.80;;;14.30;82.10;;;;;;6129087;29;20498;-65
2022/11/05 10:14:51;;;;;;;1.67;0.80;;;14.40;81.80;;;;;;6128130;29;20472;-64
2022/11/05 10:17:58;;;;;;;1.63;1.53;;;14.50;81.40;;;;;;6137618;28;20523;-65
2022/11/05 10:21:02;;;;;;;2.63;1.20;;;14.50;80.20;;;;;;6140601;29;20816;-66
2022/11/05 10:24:12;;;;;;;0.90;0.70;;;14.50;81.60;;;;;;6151543;28;20494;-68
2022/11/05 10:27:20;;;;;;;1.23;0.67;;;14.60;81.40;;;;;;6105411;29;20492;-63
2022/11/05 10:30:25;;;;;;;1.20;1.10;;;14.50;80.20;;;;;;6104993;29;20481;-65
2022/11/05 10:33:32;;;;;;;0.70;0.50;;;14.50;81.30;;;;;;6122465;29;20479;-65
2022/11/05 10:36:38;;;;;;;1.57;1.00;;;14.50;79.80;;;;;;6152622;28;20473;-65
2022/11/05 10:39:41;;;;;;;0.83;0.70;;;14.60;80.80;;;;;;6152483;28;20489;-64
2022/11/05 10:42:54;;;;;;;0.83;0.80;;;14.70;79.70;;;;;;6152139;28;20774;-63
2022/11/05 10:46:10;;;;;;;1.50;1.00;;;14.70;79.50;;;;;;6152427;28;20550;-64
2022/11/05 10:49:40;;;;;;;0.73;0.60;;;14.70;79.70;;;;;;6152578;29;20475;-62
2022/11/05 10:52:53;;;;;;;1.53;1.00;;;14.80;78.90;;;;;;6122564;28;20478;-63
2022/11/05 10:55:57;;;;;;;1.03;0.70;;;14.80;79.60;;;;;;6152612;28;20498;-63
2022/11/05 10:59:02;;;;;;;3.00;0.70;;;14.90;79.70;;;;;;6152809;28;20481;-62
2022/11/05 11:02:23;;;;;;;1.17;0.70;;;15.00;78.70;;;;;;6152679;28;20490;-64
2022/11/05 11:05:30;;;;;;;1.00;0.90;;;14.90;78.30;;;;;;6152557;28;20467;-64
2022/11/05 11:08:35;;;;;;;1.60;1.37;;;15.00;78.60;;;;;;6151867;28;20569;-62
2022/11/05 11:11:42;;;;;;;1.00;0.90;;;15.00;78.00;;;;;;6152502;28;20467;-63
2022/11/05 11:15:00;;;;;;;1.30;1.20;;;15.10;77.30;;;;;;6152199;28;20816;-63
2022/11/05 11:21:32;;;;;;;2.53;2.33;;;15.10;76.80;;;;;;6345731;27;20510;-64
2022/11/05 11:24:39;;;;;;;1.33;1.23;;;15.10;77.30;;;;;;6320882;28;20456;-63
2022/11/05 11:27:42;;;;;;;1.47;1.37;;;15.20;76.80;;;;;;6321562;28;20432;-62
2022/11/05 11:30:50;;;;;;;1.87;1.47;;;15.20;76.20;;;;;;6321151;28;20444;-64
2022/11/05 11:33:59;;;;;;;1.53;1.00;;;15.30;76.40;;;;;;6321032;28;20751;-63
2022/11/05 11:37:07;;;;;;;1.07;1.00;;;15.30;76.10;;;;;;6321202;28;20789;-64
2022/11/05 11:40:16;;;;;;;1.43;1.33;;;15.40;75.90;;;;;;6320962;28;20490;-63
2022/11/05 11:43:26;;;;;;;1.10;1.00;;;15.30;75.90;;;;;;6320830;28;20789;-63
2022/11/05 11:46:32;;;;;;;0.77;0.70;;;15.30;75.70;;;;;;6311589;28;20527;-64
2022/11/05 11:49:44;;;;;;;1.43;0.80;;;15.40;74.70;;;;;;6294451;28;20466;-63
2022/11/05 11:52:49;;;;;;;1.00;0.70;;;15.40;74.80;;;;;;6295305;28;20804;-64
2022/11/05 11:56:04;;;;;;;1.63;0.70;;;15.40;75.40;;;;;;6295190;28;21015;-65
2022/11/05 11:59:16;;;;;;;0.83;0.53;;;15.50;74.50;;;;;;6294588;28;20802;-64
2022/11/05 12:02:46;;;;;;;1.43;0.70;;;15.70;74.10;;;;;;6295309;28;20473;-64
2022/11/05 12:05:58;;;;;;;0.80;0.57;;;15.80;73.50;;;;;;6270537;28;20480;-64
2022/11/05 12:09:11;;;;;;;0.70;0.60;;;16.00;73.30;;;;;;6270427;28;20958;-64
2022/11/05 12:12:17;;;;;;;1.40;0.70;;;16.30;72.70;;;;;;6269934;28;20475;-63
2022/11/05 12:15:34;;;;;;;0.87;0.60;;;16.60;72.30;;;;;;6269558;28;20470;-64
2022/11/05 12:18:44;;;;;;;0.93;0.80;;;17.30;70.50;;;;;;6287459;28;20956;-64
2022/11/05 12:21:59;;;;;;;0.90;0.90;;;18.20;68.60;;;;;;6292213;28;20628;-64
2022/11/05 12:25:22;;;;;;;0.80;0.80;;;19.00;65.80;;;;;;6292477;28;20231;-63
2022/11/05 12:28:54;;;;;;;0.63;0.63;;;19.90;61.80;;;;;;6293624;28;20305;-64
2022/11/05 12:32:35;;;;;;;2.27;0.77;;;20.10;59.10;;;;;;6282162;28;20235;-63
2022/11/05 12:35:53;;;;;;;1.57;1.13;;;20.00;59.00;;;;;;6277731;28;20228;-64
2022/11/05 12:39:38;;;;;;;0.80;0.60;;;19.60;58.90;;;;;;6277758;28;20234;-63
2022/11/05 12:42:56;;;;;;;0.57;0.50;;;19.10;58.30;;;;;;6257197;28;20255;-63
2022/11/05 12:46:06;;;;;;;0.70;0.40;;;18.60;59.20;;;;;;6290774;28;20224;-64
2022/11/05 12:49:45;;;;;;;1.43;0.70;;;18.10;59.60;;;;;;6292689;28;20518;-64
2022/11/05 12:53:23;;;;;;;0.50;0.50;;;17.40;61.40;;;;;;6301686;28;20465;-63
2022/11/05 12:56:33;;;;;;;0.70;0.60;;;17.10;63.80;;;;;;6296352;28;21000;-63
2022/11/05 12:59:43;;;;;;;0.60;0.53;;;16.90;63.40;;;;;;6301755;28;20488;-64
2022/11/05 13:02:52;;;;;;;0.60;0.50;;;16.70;64.30;;;;;;6298772;28;20549;-63
2022/11/05 13:06:05;;;;;;;0.70;0.70;;;16.50;64.80;;;;;;6301126;28;20945;-63
2022/11/05 13:09:13;;;;;;;3.10;1.87;;;16.40;64.20;;;;;;6277097;28;20470;-63
2022/11/05 13:12:21;;;;;;;2.00;1.80;;;16.20;64.90;;;;;;6276546;28;20541;-63
2022/11/05 13:15:31;;;;;;;0.60;0.60;;;15.90;63.90;;;;;;6261403;28;20799;-63
2022/11/05 13:18:40;;;;;;;1.80;1.00;;;15.80;65.90;;;;;;6294363;28;20461;-63
2022/11/05 13:21:47;;;;;;;1.83;0.90;;;15.50;67.20;;;;;;6301069;28;20487;-61
2022/11/05 13:24:53;;;;;;;0.70;0.60;;;15.40;67.40;;;;;;6300489;28;20440;-63
2022/11/05 13:28:14;;;;;;;1.00;0.73;;;15.20;67.00;;;;;;6300107;28;20480;-61
2022/11/05 13:31:24;;;;;;;1.20;0.90;;;15.20;67.80;;;;;;6301184;28;20473;-63
2022/11/05 13:34:28;;;;;;;1.50;0.90;;;15.20;67.50;;;;;;6300545;28;20473;-62
2022/11/05 13:41:24;;;;;;;0.90;0.70;;;15.20;67.80;;;;;;6301031;28;20838;-63
2022/11/05 13:44:47;;;;;;;2.93;0.97;;;15.30;68.20;;;;;;6299292;28;20572;-62
2022/11/05 13:48:11;;;;;;;1.20;1.10;;;15.40;67.80;;;;;;6291846;28;20499;-62
2022/11/05 13:51:48;;;;;;;0.97;0.97;;;15.50;68.00;;;;;;6297920;28;20979;-62
2022/11/05 13:55:23;;;;;;;1.60;1.10;;;15.80;67.30;;;;;;6293631;28;20808;-63
2022/11/05 13:58:52;;;;;;;0.93;0.77;;;16.00;66.50;;;;;;6298460;28;20778;-63
2022/11/05 14:01:58;;;;;;;0.83;0.53;;;16.00;65.90;;;;;;6299246;28;20775;-63
2022/11/05 14:05:07;;;;;;;2.70;0.60;;;15.90;65.20;;;;;;6299701;28;20477;-63
2022/11/05 14:08:17;;;;;;;2.30;1.00;;;15.80;65.30;;;;;;6300181;28;20480;-63
2022/11/05 14:11:23;;;;;;;0.77;0.77;;;15.70;66.40;;;;;;6300611;28;20607;-63
2022/11/05 14:14:30;;;;;;;0.97;0.87;;;15.70;66.50;;;;;;6300549;28;20850;-63
2022/11/05 14:17:53;;;;;;;1.10;0.70;;;15.60;66.10;;;;;;6289795;28;20474;-63
2022/11/05 14:21:00;;;;;;;1.80;1.50;;;15.40;65.90;;;;;;6274425;28;20913;-62
2022/11/05 14:24:25;;;;;;;3.30;3.00;;;15.20;66.60;;;;;;6283857;28;20472;-62
2022/11/05 14:27:53;;;;;;;3.03;2.17;;;15.10;67.60;;;;;;6325049;28;20473;-63
2022/11/05 14:30:56;;;;;;;1.20;1.10;;;15.00;67.30;;;;;;6324851;28;20451;-63
2022/11/05 14:34:16;;;;;;;1.27;0.87;;;15.00;67.60;;;;;;6324425;28;21097;-64
2022/11/05 14:37:36;;;;;;;1.07;1.00;;;14.90;67.00;;;;;;6325093;28;20467;-65
2022/11/05 14:40:41;;;;;;;1.23;1.00;;;14.80;67.30;;;;;;6306241;28;20484;-65
2022/11/05 14:43:52;;;;;;;1.27;1.17;;;14.80;67.50;;;;;;6299501;28;20484;-66
2022/11/05 14:47:00;;;;;;;1.63;0.60;;;14.80;67.30;;;;;;6299743;28;20469;-64
2022/11/05 14:50:10;;;;;;;2.23;0.90;;;14.70;67.50;;;;;;6299593;28;20473;-66
2022/11/05 14:53:30;;;;;;;0.90;0.90;;;14.70;67.00;;;;;;6299488;28;20477;-66
2022/11/05 14:56:44;;;;;;;1.97;1.07;;;14.60;67.60;;;;;;6299763;28;20474;-66
2022/11/05 14:59:53;;;;;;;0.90;0.90;;;14.60;67.60;;;;;;6299418;28;20980;-65
2022/11/05 15:03:00;;;;;;;0.60;0.60;;;14.50;67.70;;;;;;6299424;28;20465;-65
2022/11/05 15:06:19;;;;;;;1.67;0.87;;;14.50;68.20;;;;;;6299787;28;20478;-65
2022/11/05 15:09:34;;;;;;;1.07;0.97;;;14.40;67.90;;;;;;6299256;28;20936;-64
2022/11/05 15:12:42;;;;;;;1.73;1.47;;;14.30;67.60;;;;;;6299656;28;20457;-64
2022/11/05 15:15:49;;;;;;;1.50;0.97;;;14.10;68.10;;;;;;6299702;28;20475;-64
2022/11/05 15:18:55;;;;;;;2.20;0.97;;;14.00;68.60;;;;;;6281140;28;20465;-64
2022/11/05 15:22:04;;;;;;;1.50;1.07;;;14.00;68.80;;;;;;6298278;28;21010;-65
2022/11/05 15:25:18;;;;;;;1.87;0.97;;;13.90;69.90;;;;;;6312533;28;20472;-65
2022/11/05 15:28:30;;;;;;;1.40;1.00;;;13.80;68.60;;;;;;6323089;28;20479;-65
2022/11/05 15:31:40;;;;;;;1.10;0.90;;;13.60;68.90;;;;;;6323809;28;20464;-64
2022/11/05 15:34:51;;;;;;;0.80;0.80;;;13.50;69.50;;;;;;6324260;28;20775;-66
2022/11/05 15:37:57;;;;;;;2.00;0.90;;;13.40;70.20;;;;;;6324662;28;20477;-64
2022/11/05 15:41:15;;;;;;;0.80;0.80;;;13.40;70.70;;;;;;6324090;28;20561;-65
2022/11/05 15:44:27;;;;;;;1.13;1.03;;;13.30;70.60;;;;;;6324271;28;20492;-65
2022/11/05 15:47:33;;;;;;;1.47;1.37;;;13.20;70.40;;;;;;6324060;28;20464;-65
2022/11/05 15:50:37;;;;;;;1.20;0.97;;;13.20;70.50;;;;;;6324165;28;20494;-66
2022/11/05 15:53:56;;;;;;;0.97;0.87;;;13.10;71.40;;;;;;6306801;28;20492;-65
2022/11/05 15:57:26;;;;;;;1.30;1.10;;;13.10;71.20;;;;;;6298955;28;20882;-64
2022/11/05 16:00:31;;;;;;;1.30;1.20;;;12.90;73.30;;;;;;6298944;28;21014;-65
2022/11/05 16:03:38;;;;;;;3.93;1.57;;;12.90;72.40;;;;;;6297529;28;20465;-65
2022/11/05 16:06:47;;;;;;;1.50;1.30;;;12.90;73.70;;;;;;6297304;28;20433;-64
2022/11/05 16:09:53;;;;;;;1.27;1.17;;;12.90;74.60;;;;;;6302793;28;20866;-65
2022/11/05 16:13:19;;;;;;;1.70;1.33;;;12.90;73.80;;;;;;6302700;28;20465;-65
2022/11/05 16:16:32;;;;;;;1.20;1.10;;;12.80;74.70;;;;;;6303034;28;20472;-65
2022/11/05 16:19:41;;;;;;;1.40;1.20;;;12.80;73.90;;;;;;6277762;28;20954;-65
2022/11/05 16:22:45;;;;;;;2.57;1.20;;;12.70;74.40;;;;;;6294162;28;20465;-65
2022/11/05 16:25:50;;;;;;;1.10;1.00;;;12.60;72.20;;;;;;6302396;28;20461;-65
2022/11/05 16:28:55;;;;;;;2.43;1.87;;;12.60;72.40;;;;;;6301992;28;20469;-64
2022/11/05 16:32:02;;;;;;;1.10;1.00;;;12.60;72.60;;;;;;6300845;28;20484;-64
2022/11/05 16:35:07;;;;;;;1.87;1.50;;;12.50;72.70;;;;;;6301080;28;20603;-64
2022/11/05 16:38:13;;;;;;;1.10;1.00;;;12.50;73.60;;;;;;6301114;28;20582;-64
2022/11/05 16:41:19;;;;;;;7.43;6.83;;;12.40;74.10;;;;;;6300231;28;20477;-65
2022/11/05 16:44:25;;;;;;;5.17;4.77;;;12.40;74.10;;;;;;6301975;28;20496;-64
2022/11/05 16:47:30;;;;;;;1.50;1.40;;;12.40;74.50;;;;;;6301662;28;20949;-66
2022/11/05 16:50:34;;;;;;;1.40;1.20;;;12.40;74.40;;;;;;6302379;28;20478;-65
2022/11/05 16:53:38;;;;;;;1.87;1.20;;;12.40;74.60;;;;;;6301637;28;20512;-64
2022/11/05 16:56:42;;;;;;;1.37;1.27;;;12.30;74.70;;;;;;6302124;28;20790;-64
2022/11/05 16:59:51;;;;;;;1.30;1.20;;;12.30;75.50;;;;;;6302291;28;20607;-65
2022/11/05 17:02:55;;;;;;;1.93;1.83;;;12.30;75.40;;;;;;6301770;28;20473;-65
2022/11/05 17:06:00;;;;;;;4.43;1.90;;;12.30;75.60;;;;;;6301677;28;20470;-65